createdAt,value
2018-10-03T00:00:59.908Z,2.35
2018-10-03T00:02:03.252Z,2.70
2018-10-03T00:03:06.632Z,2.60
2018-10-03T00:04:09.983Z,3.10
2018-10-03T00:05:13.333Z,3.40
2018-10-03T00:06:16.663Z,2.72
2018-10-03T00:07:20.044Z,2.90
2018-10-03T00:08:23.446Z,2.52
2018-10-03T00:09:26.792Z,3.42
2018-10-03T00:10:30.124Z,2.50
2018-10-03T00:11:33.460Z,3.72
2018-10-03T00:12:37.452Z,2.67
2018-10-03T00:13:40.832Z,2.60
2018-10-03T00:14:44.220Z,3.40
2018-10-03T00:15:47.570Z,4.47
2018-10-03T00:16:50.941Z,3.05
2018-10-03T00:17:54.296Z,3.52
2018-10-03T00:18:57.632Z,2.70
2018-10-03T00:20:01.068Z,3.77
2018-10-03T00:21:04.441Z,2.90
2018-10-03T00:22:07.809Z,3.90
2018-10-03T00:23:11.195Z,3.25
2018-10-03T00:24:14.555Z,3.50
2018-10-03T00:25:17.973Z,3.08
2018-10-03T00:26:21.359Z,2.77
2018-10-03T00:27:24.737Z,3.05
2018-10-03T00:28:28.092Z,3.15
2018-10-03T00:29:31.424Z,2.98
2018-10-03T00:30:34.798Z,2.90
2018-10-03T00:31:38.136Z,3.00
2018-10-03T00:32:41.470Z,3.55
2018-10-03T00:33:44.808Z,3.87
2018-10-03T00:34:48.155Z,3.35
2018-10-03T00:35:51.511Z,2.33
2018-10-03T00:36:54.849Z,3.10
2018-10-03T00:37:58.188Z,3.87
2018-10-03T00:39:01.598Z,3.40
2018-10-03T00:40:04.974Z,2.65
2018-10-03T00:41:08.562Z,3.33
2018-10-03T00:42:11.895Z,2.50
2018-10-03T00:43:21.931Z,3.25
2018-10-03T00:44:25.369Z,3.30
2018-10-03T00:45:28.708Z,2.75
2018-10-03T00:46:32.055Z,3.17
2018-10-03T00:47:35.413Z,3.33
2018-10-03T00:48:38.798Z,3.30
2018-10-03T00:49:42.147Z,4.08
2018-10-03T00:50:45.547Z,3.62
2018-10-03T00:51:48.883Z,3.40
2018-10-03T00:52:52.220Z,2.60
2018-10-03T00:53:55.547Z,2.52
2018-10-03T00:54:58.907Z,3.10
2018-10-03T00:56:02.306Z,2.98
2018-10-03T00:57:05.648Z,3.40
2018-10-03T00:58:08.996Z,3.00
2018-10-03T00:59:12.345Z,2.77
2018-10-03T01:00:15.703Z,2.80
2018-10-03T01:01:19.080Z,3.00
2018-10-03T01:02:22.420Z,3.47
2018-10-03T01:03:25.792Z,3.45
2018-10-03T01:04:29.169Z,3.00
2018-10-03T01:05:32.504Z,3.67
2018-10-03T01:06:35.850Z,3.87
2018-10-03T01:07:39.184Z,3.55
2018-10-03T01:08:42.521Z,2.50
2018-10-03T01:09:45.895Z,2.20
2018-10-03T01:10:49.228Z,3.52
2018-10-03T01:11:52.578Z,2.87
2018-10-03T01:12:55.924Z,3.40
2018-10-03T01:13:59.307Z,3.30
2018-10-03T01:15:02.636Z,3.98
2018-10-03T01:16:05.988Z,3.70
2018-10-03T01:17:09.348Z,2.40
2018-10-03T01:18:12.705Z,3.52
2018-10-03T01:19:16.383Z,3.20
2018-10-03T01:20:19.759Z,3.42
2018-10-03T01:21:23.092Z,2.65
2018-10-03T01:22:26.443Z,2.92
2018-10-03T01:23:29.778Z,2.33
2018-10-03T01:24:33.142Z,3.30
2018-10-03T01:25:36.515Z,3.60
2018-10-03T01:26:39.860Z,3.30
2018-10-03T01:27:43.203Z,2.95
2018-10-03T01:28:46.568Z,3.58
2018-10-03T01:29:49.944Z,2.87
2018-10-03T01:30:53.288Z,3.02
2018-10-03T01:31:56.623Z,2.85
2018-10-03T01:32:59.964Z,2.95
2018-10-03T01:34:03.301Z,2.85
2018-10-03T01:35:06.684Z,4.12
2018-10-03T01:36:10.016Z,3.15
2018-10-03T01:37:13.352Z,3.05
2018-10-03T01:38:16.734Z,2.87
2018-10-03T01:39:20.055Z,2.58
2018-10-03T01:40:23.420Z,4.22
2018-10-03T01:41:26.792Z,3.95
2018-10-03T01:42:30.128Z,3.50
2018-10-03T01:43:33.483Z,3.85
2018-10-03T01:44:37.015Z,3.52
2018-10-03T01:45:40.359Z,3.60
2018-10-03T01:46:43.729Z,3.42
2018-10-03T01:47:47.151Z,2.15
2018-10-03T01:48:50.511Z,3.85
2018-10-03T01:49:53.855Z,2.60
2018-10-03T01:50:57.216Z,3.87
2018-10-03T01:52:00.560Z,2.62
2018-10-03T01:53:03.937Z,2.58
2018-10-03T01:54:07.296Z,2.60
2018-10-03T01:55:10.644Z,3.05
2018-10-03T01:56:13.984Z,3.30
2018-10-03T01:57:17.340Z,3.80
2018-10-03T01:58:20.703Z,2.45
2018-10-03T01:59:24.060Z,2.72
2018-10-03T02:00:27.395Z,2.42
2018-10-03T02:01:30.833Z,2.50
2018-10-03T02:02:34.187Z,2.58
2018-10-03T02:03:37.595Z,2.15
2018-10-03T02:04:40.936Z,2.20
2018-10-03T02:05:44.267Z,3.75
2018-10-03T02:06:47.601Z,3.60
2018-10-03T02:07:50.928Z,3.45
2018-10-03T02:08:54.308Z,2.40
2018-10-03T02:09:57.676Z,3.67
2018-10-03T02:11:01.044Z,3.17
2018-10-03T02:12:04.381Z,2.75
2018-10-03T02:13:07.735Z,2.92
2018-10-03T02:14:11.076Z,2.83
2018-10-03T02:15:14.449Z,3.37
2018-10-03T02:16:17.921Z,4.15
2018-10-03T02:17:21.281Z,2.65
2018-10-03T02:18:24.619Z,2.87
2018-10-03T02:19:27.997Z,2.72
2018-10-03T02:20:31.327Z,2.15
2018-10-03T02:21:34.728Z,2.90
2018-10-03T02:22:38.051Z,2.55
2018-10-03T02:23:41.381Z,2.55
2018-10-03T02:24:44.759Z,3.05
2018-10-03T02:25:48.150Z,3.15
2018-10-03T02:26:51.516Z,2.67
2018-10-03T02:27:54.862Z,2.85
2018-10-03T02:28:58.215Z,2.87
2018-10-03T02:30:01.554Z,2.87
2018-10-03T02:31:04.950Z,3.25
2018-10-03T02:32:08.323Z,2.85
2018-10-03T02:33:11.687Z,3.40
2018-10-03T02:34:15.081Z,2.33
2018-10-03T02:35:18.452Z,2.60
2018-10-03T02:36:21.785Z,2.85
2018-10-03T02:37:25.137Z,3.60
2018-10-03T02:38:28.459Z,2.25
2018-10-03T02:39:31.787Z,3.27
2018-10-03T02:40:35.181Z,2.83
2018-10-03T02:41:38.705Z,2.70
2018-10-03T02:42:42.042Z,2.42
2018-10-03T02:43:45.380Z,2.55
2018-10-03T02:44:48.709Z,2.80
2018-10-03T02:45:52.079Z,2.47
2018-10-03T02:46:55.455Z,2.15
2018-10-03T02:47:58.816Z,2.60
2018-10-03T02:49:02.440Z,2.72
2018-10-03T02:50:05.806Z,2.80
2018-10-03T02:51:09.155Z,2.67
2018-10-03T02:52:12.532Z,3.02
2018-10-03T02:53:15.967Z,3.35
2018-10-03T02:54:19.308Z,2.10
2018-10-03T02:55:22.676Z,2.10
2018-10-03T02:56:26.018Z,2.15
2018-10-03T02:57:29.360Z,2.35
2018-10-03T02:58:32.687Z,2.90
2018-10-03T02:59:36.088Z,2.50
2018-10-03T03:00:39.412Z,2.58
2018-10-03T03:01:42.801Z,2.37
2018-10-03T03:02:46.140Z,2.45
2018-10-03T03:03:49.488Z,3.47
2018-10-03T03:04:52.888Z,2.02
2018-10-03T03:05:56.233Z,2.58
2018-10-03T03:06:59.564Z,2.20
2018-10-03T03:08:02.898Z,2.80
2018-10-03T03:09:09.516Z,3.10
2018-10-03T03:10:12.815Z,2.27
2018-10-03T03:11:16.208Z,2.70
2018-10-03T03:12:19.549Z,2.55
2018-10-03T03:13:22.949Z,3.05
2018-10-03T03:14:26.293Z,2.67
2018-10-03T03:15:29.640Z,2.55
2018-10-03T03:16:32.996Z,2.17
2018-10-03T03:17:36.323Z,2.05
2018-10-03T03:18:39.701Z,2.83
2018-10-03T03:19:43.064Z,2.92
2018-10-03T03:20:46.412Z,2.20
2018-10-03T03:21:49.753Z,3.55
2018-10-03T03:22:53.136Z,2.47
2018-10-03T03:23:56.483Z,3.10
2018-10-03T03:24:59.815Z,3.65
2018-10-03T03:26:03.147Z,3.08
2018-10-03T03:27:06.485Z,2.52
2018-10-03T03:28:09.858Z,2.58
2018-10-03T03:29:13.280Z,3.08
2018-10-03T03:30:16.609Z,3.42
2018-10-03T03:31:19.939Z,2.55
2018-10-03T03:32:23.289Z,3.60
2018-10-03T03:33:26.670Z,2.37
2018-10-03T03:34:30.020Z,2.45
2018-10-03T03:35:33.416Z,2.52
2018-10-03T03:36:36.755Z,2.80
2018-10-03T03:37:40.101Z,2.75
2018-10-03T03:38:43.448Z,2.02
2018-10-03T03:39:46.784Z,4.37
2018-10-03T03:40:50.144Z,3.30
2018-10-03T03:41:53.468Z,2.60
2018-10-03T03:42:56.816Z,2.17
2018-10-03T03:44:00.187Z,2.80
2018-10-03T03:45:03.551Z,2.75
2018-10-03T03:46:06.889Z,2.80
2018-10-03T03:47:10.268Z,2.58
2018-10-03T03:48:13.625Z,3.95
2018-10-03T03:49:16.989Z,3.10
2018-10-03T03:50:20.356Z,2.20
2018-10-03T03:51:23.688Z,3.05
2018-10-03T03:52:27.036Z,2.85
2018-10-03T03:53:30.385Z,2.52
2018-10-03T03:54:33.716Z,2.85
2018-10-03T03:55:37.113Z,2.98
2018-10-03T03:56:40.451Z,2.33
2018-10-03T03:57:43.791Z,2.52
2018-10-03T03:58:47.144Z,2.65
2018-10-03T03:59:50.540Z,2.62
2018-10-03T04:00:53.886Z,2.75
2018-10-03T04:01:57.267Z,2.55
2018-10-03T04:03:00.639Z,2.50
2018-10-03T04:04:03.969Z,2.50
2018-10-03T04:05:07.303Z,2.98
2018-10-03T04:06:10.725Z,3.60
2018-10-03T04:07:14.132Z,2.70
2018-10-03T04:08:17.474Z,2.60
2018-10-03T04:09:20.853Z,3.35
2018-10-03T04:10:24.234Z,3.58
2018-10-03T04:11:27.568Z,3.75
2018-10-03T04:12:30.949Z,2.12
2018-10-03T04:13:34.284Z,2.70
2018-10-03T04:14:37.625Z,2.83
2018-10-03T04:15:40.968Z,1.85
2018-10-03T04:16:44.329Z,2.35
2018-10-03T04:17:47.717Z,3.60
2018-10-03T04:18:51.052Z,2.80
2018-10-03T04:19:54.388Z,3.65
2018-10-03T04:20:57.749Z,2.12
2018-10-03T04:22:01.093Z,3.05
2018-10-03T04:23:04.459Z,3.60
2018-10-03T04:24:08.992Z,3.37
2018-10-03T04:25:12.394Z,4.10
2018-10-03T04:26:15.720Z,2.58
2018-10-03T04:27:19.108Z,2.62
2018-10-03T04:28:22.488Z,2.80
2018-10-03T04:29:25.870Z,2.55
2018-10-03T04:30:29.237Z,2.67
2018-10-03T04:31:38.987Z,2.00
2018-10-03T04:32:42.375Z,3.10
2018-10-03T04:33:45.709Z,3.15
2018-10-03T04:34:49.041Z,3.10
2018-10-03T04:35:52.457Z,2.60
2018-10-03T04:36:55.848Z,4.05
2018-10-03T04:37:59.216Z,2.72
2018-10-03T04:39:02.889Z,2.05
2018-10-03T04:40:06.380Z,2.55
2018-10-03T04:41:09.708Z,2.70
2018-10-03T04:42:13.095Z,3.47
2018-10-03T04:43:16.439Z,3.22
2018-10-03T04:44:19.777Z,2.75
2018-10-03T04:45:23.144Z,2.60
2018-10-03T04:46:26.511Z,2.40
2018-10-03T04:47:29.856Z,2.95
2018-10-03T04:48:33.212Z,2.83
2018-10-03T04:49:36.561Z,3.27
2018-10-03T04:50:39.926Z,3.10
2018-10-03T04:51:43.297Z,3.27
2018-10-03T04:52:46.680Z,2.70
2018-10-03T04:53:50.040Z,3.15
2018-10-03T04:54:53.380Z,3.47
2018-10-03T04:55:56.720Z,2.80
2018-10-03T04:57:00.090Z,2.40
2018-10-03T04:58:03.444Z,2.22
2018-10-03T04:59:06.820Z,2.17
2018-10-03T05:00:10.157Z,3.58
2018-10-03T05:01:13.637Z,3.27
2018-10-03T05:02:16.981Z,2.45
2018-10-03T05:03:20.336Z,2.60
2018-10-03T05:04:23.679Z,3.12
2018-10-03T05:05:27.055Z,3.00
2018-10-03T05:06:30.483Z,2.60
2018-10-03T05:07:33.845Z,2.70
2018-10-03T05:08:37.503Z,2.40
2018-10-03T05:09:40.920Z,3.50
2018-10-03T05:10:44.263Z,3.72
2018-10-03T05:11:47.601Z,2.98
2018-10-03T05:12:50.943Z,3.00
2018-10-03T05:13:54.285Z,3.10
2018-10-03T05:14:57.653Z,3.30
2018-10-03T05:16:01.100Z,2.65
2018-10-03T05:17:04.472Z,2.70
2018-10-03T05:18:07.840Z,3.30
2018-10-03T05:19:11.183Z,3.33
2018-10-03T05:20:14.525Z,3.27
2018-10-03T05:21:17.885Z,3.10
2018-10-03T05:22:21.263Z,2.85
2018-10-03T05:23:24.612Z,3.00
2018-10-03T05:24:27.960Z,2.92
2018-10-03T05:25:31.332Z,3.08
2018-10-03T05:26:34.680Z,2.40
2018-10-03T05:27:38.103Z,3.08
2018-10-03T05:28:41.400Z,3.15
2018-10-03T05:29:44.768Z,2.98
2018-10-03T05:30:48.168Z,3.58
2018-10-03T05:31:51.539Z,3.72
2018-10-03T05:32:54.884Z,3.10
2018-10-03T05:33:58.248Z,2.72
2018-10-03T05:35:01.605Z,3.15
2018-10-03T05:36:04.993Z,3.85
2018-10-03T05:37:08.352Z,2.98
2018-10-03T05:38:11.704Z,3.20
2018-10-03T05:39:15.079Z,4.12
2018-10-03T05:40:18.458Z,2.90
2018-10-03T05:41:22.039Z,3.00
2018-10-03T05:42:25.408Z,2.58
2018-10-03T05:43:28.751Z,3.27
2018-10-03T05:44:32.099Z,3.42
2018-10-03T05:45:35.457Z,2.95
2018-10-03T05:46:38.875Z,3.20
2018-10-03T05:47:42.228Z,2.40
2018-10-03T05:48:45.634Z,3.58
2018-10-03T05:49:48.984Z,2.55
2018-10-03T05:50:52.383Z,2.85
2018-10-03T05:51:55.783Z,2.67
2018-10-03T05:52:59.103Z,2.95
2018-10-03T05:54:02.435Z,2.90
2018-10-03T05:55:06.092Z,3.77
2018-10-03T05:56:09.428Z,3.30
2018-10-03T05:57:12.756Z,3.00
2018-10-03T05:58:16.117Z,2.90
2018-10-03T05:59:19.453Z,3.55
2018-10-03T06:00:22.809Z,2.95
2018-10-03T06:01:26.165Z,2.75
2018-10-03T06:02:29.531Z,3.22
2018-10-03T06:03:33.022Z,2.85
2018-10-03T06:04:36.377Z,2.50
2018-10-03T06:05:39.743Z,3.17
2018-10-03T06:06:43.096Z,3.05
2018-10-03T06:07:46.469Z,2.70
2018-10-03T06:08:49.805Z,3.05
2018-10-03T06:09:53.191Z,3.10
2018-10-03T06:10:56.540Z,3.58
2018-10-03T06:11:59.885Z,2.55
2018-10-03T06:13:03.235Z,3.25
2018-10-03T06:14:06.635Z,3.47
2018-10-03T06:15:09.984Z,3.05
2018-10-03T06:16:13.336Z,3.65
2018-10-03T06:17:16.699Z,2.85
2018-10-03T06:18:20.040Z,2.87
2018-10-03T06:19:23.568Z,3.27
2018-10-03T06:20:26.911Z,2.67
2018-10-03T06:21:30.248Z,3.37
2018-10-03T06:22:33.592Z,3.35
2018-10-03T06:23:36.924Z,2.90
2018-10-03T06:24:40.317Z,4.58
2018-10-03T06:25:43.700Z,4.20
2018-10-03T06:26:47.104Z,3.85
2018-10-03T06:27:50.479Z,3.45
2018-10-03T06:28:53.841Z,3.05
2018-10-03T06:29:57.199Z,3.35
2018-10-03T06:31:00.532Z,3.40
2018-10-03T06:32:03.915Z,2.02
2018-10-03T06:33:07.260Z,4.03
2018-10-03T06:34:10.704Z,2.85
2018-10-03T06:35:14.655Z,3.30
2018-10-03T06:36:18.028Z,2.70
2018-10-03T06:37:21.383Z,3.30
2018-10-03T06:38:24.770Z,2.90
2018-10-03T06:39:28.119Z,3.08
2018-10-03T06:40:31.531Z,2.30
2018-10-03T06:41:34.904Z,2.40
2018-10-03T06:42:38.277Z,3.40
2018-10-03T06:43:41.603Z,3.17
2018-10-03T06:44:44.958Z,3.22
2018-10-03T06:45:48.484Z,3.98
2018-10-03T06:46:51.696Z,2.55
2018-10-03T06:47:55.047Z,2.62
2018-10-03T06:48:58.404Z,3.70
2018-10-03T06:50:01.730Z,2.45
2018-10-03T06:51:05.132Z,3.83
2018-10-03T06:52:08.504Z,2.95
2018-10-03T06:53:12.024Z,2.60
2018-10-03T06:54:15.403Z,2.90
2018-10-03T06:55:18.735Z,2.72
2018-10-03T06:56:22.068Z,3.80
2018-10-03T06:57:25.427Z,3.60
2018-10-03T06:58:28.766Z,3.72
2018-10-03T06:59:32.166Z,2.42
2018-10-03T07:00:35.507Z,2.80
2018-10-03T07:01:38.848Z,2.75
2018-10-03T07:02:42.191Z,2.87
2018-10-03T07:03:45.626Z,2.65
2018-10-03T07:04:48.956Z,2.87
2018-10-03T07:05:52.310Z,2.85
2018-10-03T07:06:55.668Z,3.02
2018-10-03T07:07:59.030Z,4.15
2018-10-03T07:09:02.487Z,3.15
2018-10-03T07:10:05.990Z,4.28
2018-10-03T07:11:09.355Z,3.85
2018-10-03T07:12:12.696Z,2.60
2018-10-03T07:13:16.697Z,2.50
2018-10-03T07:14:20.031Z,3.40
2018-10-03T07:15:23.432Z,3.30
2018-10-03T07:16:26.789Z,3.42
2018-10-03T07:17:30.121Z,3.62
2018-10-03T07:18:33.449Z,3.12
2018-10-03T07:19:36.786Z,2.50
2018-10-03T07:20:40.151Z,3.47
2018-10-03T07:21:45.269Z,2.62
2018-10-03T07:22:48.612Z,2.87
2018-10-03T07:23:51.954Z,4.28
2018-10-03T07:24:55.316Z,3.15
2018-10-03T07:25:58.786Z,3.02
2018-10-03T07:27:02.132Z,3.25
2018-10-03T07:28:05.560Z,3.58
2018-10-03T07:29:08.916Z,2.20
2018-10-03T07:30:12.264Z,3.72
2018-10-03T07:31:15.628Z,3.05
2018-10-03T07:32:18.993Z,3.22
2018-10-03T07:33:22.341Z,3.52
2018-10-03T07:34:25.839Z,2.83
2018-10-03T07:35:29.194Z,3.12
2018-10-03T07:36:32.565Z,2.60
2018-10-03T07:37:35.957Z,2.90
2018-10-03T07:38:39.309Z,3.22
2018-10-03T07:39:42.676Z,3.60
2018-10-03T07:40:46.048Z,2.70
2018-10-03T07:41:49.385Z,2.77
2018-10-03T07:42:52.750Z,3.98
2018-10-03T07:43:56.086Z,3.17
2018-10-03T07:44:59.429Z,2.70
2018-10-03T07:46:02.809Z,3.35
2018-10-03T07:47:06.193Z,3.05
2018-10-03T07:48:09.591Z,3.30
2018-10-03T07:49:12.896Z,3.25
2018-10-03T07:50:16.250Z,3.25
2018-10-03T07:51:19.631Z,2.80
2018-10-03T07:52:22.968Z,3.50
2018-10-03T07:53:26.432Z,3.08
2018-10-03T07:54:29.764Z,3.35
2018-10-03T07:55:33.095Z,3.05
2018-10-03T07:56:36.473Z,3.50
2018-10-03T07:57:39.797Z,3.15
2018-10-03T07:58:43.132Z,2.50
2018-10-03T07:59:46.492Z,2.83
2018-10-03T08:00:49.852Z,2.80
2018-10-03T08:01:53.202Z,2.80
2018-10-03T08:02:56.861Z,2.85
2018-10-03T08:04:00.190Z,3.87
2018-10-03T08:05:03.536Z,3.50
2018-10-03T08:06:06.972Z,3.85
2018-10-03T08:07:10.300Z,2.98
2018-10-03T08:08:13.671Z,2.90
2018-10-03T08:09:16.995Z,3.30
2018-10-03T08:10:20.356Z,2.58
2018-10-03T08:11:23.728Z,3.98
2018-10-03T08:12:27.061Z,2.40
2018-10-03T08:13:30.456Z,3.27
2018-10-03T08:14:33.795Z,3.40
2018-10-03T08:15:37.311Z,3.98
2018-10-03T08:16:40.657Z,2.67
2018-10-03T08:17:44.025Z,2.62
2018-10-03T08:18:47.452Z,3.22
2018-10-03T08:19:50.788Z,2.45
2018-10-03T08:20:54.122Z,3.72
2018-10-03T08:21:57.471Z,2.90
2018-10-03T08:23:00.911Z,2.40
2018-10-03T08:24:04.295Z,3.15
2018-10-03T08:25:07.632Z,2.52
2018-10-03T08:26:11.001Z,2.55
2018-10-03T08:27:14.343Z,2.70
2018-10-03T08:28:17.689Z,2.92
2018-10-03T08:29:21.117Z,3.27
2018-10-03T08:30:24.460Z,3.15
2018-10-03T08:31:27.864Z,2.72
2018-10-03T08:32:31.250Z,3.72
2018-10-03T08:33:34.564Z,3.60
2018-10-03T08:34:37.954Z,3.50
2018-10-03T08:35:41.281Z,3.17
2018-10-03T08:36:44.652Z,2.25
2018-10-03T08:37:48.002Z,2.45
2018-10-03T08:38:51.325Z,2.40
2018-10-03T08:39:54.700Z,3.58
2018-10-03T08:40:58.044Z,2.60
2018-10-03T08:42:01.382Z,2.70
2018-10-03T08:43:04.716Z,2.92
2018-10-03T08:44:08.256Z,2.90
2018-10-03T08:45:11.680Z,2.95
2018-10-03T08:46:15.068Z,3.25
2018-10-03T08:47:18.408Z,2.40
2018-10-03T08:48:21.731Z,2.62
2018-10-03T08:49:25.122Z,2.87
2018-10-03T08:50:28.508Z,2.98
2018-10-03T08:51:31.856Z,2.50
2018-10-03T08:52:35.187Z,2.35
2018-10-03T08:53:38.536Z,3.22
2018-10-03T08:54:41.972Z,2.67
2018-10-03T08:55:45.332Z,2.50
2018-10-03T08:56:48.663Z,2.35
2018-10-03T08:57:52.044Z,2.10
2018-10-03T08:58:55.409Z,2.70
2018-10-03T08:59:58.749Z,1.95
2018-10-03T09:01:02.113Z,2.75
2018-10-03T09:02:05.440Z,2.05
2018-10-03T09:03:08.833Z,2.62
2018-10-03T09:04:12.169Z,3.25
2018-10-03T09:05:15.512Z,2.02
2018-10-03T09:06:18.848Z,2.25
2018-10-03T09:07:22.227Z,2.25
2018-10-03T09:08:25.592Z,2.20
2018-10-03T09:09:29.100Z,2.25
2018-10-03T09:10:32.450Z,1.95
2018-10-03T09:11:35.820Z,2.27
2018-10-03T09:12:39.132Z,1.90
2018-10-03T09:13:42.503Z,2.47
2018-10-03T09:14:45.831Z,2.70
2018-10-03T09:15:49.164Z,2.17
2018-10-03T09:16:52.500Z,2.70
2018-10-03T09:17:55.844Z,2.20
2018-10-03T09:18:59.253Z,2.42
2018-10-03T09:20:02.589Z,2.10
2018-10-03T09:21:05.988Z,2.62
2018-10-03T09:22:09.316Z,1.82
2018-10-03T09:23:12.654Z,1.87
2018-10-03T09:24:16.033Z,2.05
2018-10-03T09:25:19.371Z,1.98
2018-10-03T09:26:22.716Z,2.70
2018-10-03T09:27:26.056Z,2.12
2018-10-03T09:28:29.466Z,2.30
2018-10-03T09:29:32.833Z,2.80
2018-10-03T09:30:36.169Z,2.00
2018-10-03T09:31:39.509Z,2.17
2018-10-03T09:32:42.852Z,2.40
2018-10-03T09:33:46.193Z,2.45
2018-10-03T09:34:49.662Z,2.10
2018-10-03T09:35:53.123Z,2.12
2018-10-03T09:36:56.455Z,1.67
2018-10-03T09:37:59.796Z,3.00
2018-10-03T09:39:03.216Z,1.75
2018-10-03T09:40:06.553Z,1.95
2018-10-03T09:41:09.873Z,1.52
2018-10-03T09:42:13.239Z,2.05
2018-10-03T09:43:16.569Z,1.65
2018-10-03T09:44:19.964Z,2.20
2018-10-03T09:45:23.355Z,1.50
2018-10-03T09:46:26.715Z,1.90
2018-10-03T09:47:30.040Z,2.30
2018-10-03T09:48:33.384Z,2.00
2018-10-03T09:49:36.758Z,2.22
2018-10-03T09:50:40.125Z,1.98
2018-10-03T09:51:43.475Z,1.65
2018-10-03T09:52:46.797Z,2.50
2018-10-03T09:53:50.172Z,2.60
2018-10-03T09:54:53.521Z,2.02
2018-10-03T09:55:56.848Z,2.37
2018-10-03T09:57:00.192Z,1.87
2018-10-03T09:58:03.562Z,2.08
2018-10-03T09:59:06.953Z,1.85
2018-10-03T10:00:10.324Z,1.77
2018-10-03T10:01:15.657Z,1.80
2018-10-03T10:02:19.000Z,2.10
2018-10-03T10:03:22.455Z,2.40
2018-10-03T10:04:25.941Z,1.85
2018-10-03T10:05:29.341Z,3.20
2018-10-03T10:06:33.573Z,2.10
2018-10-03T10:07:36.895Z,2.50
2018-10-03T10:08:40.241Z,2.62
2018-10-03T10:09:43.575Z,1.95
2018-10-03T10:10:46.929Z,2.15
2018-10-03T10:11:50.321Z,2.37
2018-10-03T10:12:53.664Z,2.42
2018-10-03T10:13:57.013Z,2.27
2018-10-03T10:15:00.350Z,1.98
2018-10-03T10:16:03.710Z,2.02
2018-10-03T10:17:07.084Z,1.72
2018-10-03T10:18:10.405Z,1.45
2018-10-03T10:19:13.751Z,2.70
2018-10-03T10:20:17.084Z,1.55
2018-10-03T10:21:20.415Z,1.90
2018-10-03T10:22:23.788Z,1.42
2018-10-03T10:23:27.125Z,2.25
2018-10-03T10:24:30.468Z,2.47
2018-10-03T10:25:33.821Z,2.00
2018-10-03T10:26:37.160Z,1.95
2018-10-03T10:27:40.535Z,1.85
2018-10-03T10:28:43.894Z,2.22
2018-10-03T10:29:47.237Z,3.02
2018-10-03T10:30:50.576Z,2.20
2018-10-03T10:31:54.068Z,2.10
2018-10-03T10:32:57.414Z,1.60
2018-10-03T10:34:00.720Z,2.15
2018-10-03T10:35:04.089Z,2.30
2018-10-03T10:36:07.866Z,1.40
2018-10-03T10:37:11.195Z,2.10
2018-10-03T10:38:14.604Z,1.85
2018-10-03T10:39:17.946Z,2.10
2018-10-03T10:40:21.348Z,2.15
2018-10-03T10:41:24.799Z,1.72
2018-10-03T10:42:28.018Z,1.90
2018-10-03T10:43:31.502Z,1.50
2018-10-03T10:44:34.825Z,1.70
2018-10-03T10:45:38.197Z,2.52
2018-10-03T10:46:41.577Z,2.27
2018-10-03T10:47:44.887Z,2.10
2018-10-03T10:48:48.244Z,1.98
2018-10-03T10:49:51.760Z,2.95
2018-10-03T10:50:55.156Z,1.95
2018-10-03T10:51:58.492Z,1.50
2018-10-03T10:53:01.824Z,1.20
2018-10-03T10:54:05.160Z,1.70
2018-10-03T10:55:08.559Z,2.40
2018-10-03T10:56:11.883Z,2.80
2018-10-03T10:57:15.224Z,2.00
2018-10-03T10:58:18.577Z,2.55
2018-10-03T10:59:21.927Z,1.87
2018-10-03T11:00:25.311Z,1.55
2018-10-03T11:01:28.662Z,1.60
2018-10-03T11:02:32.009Z,2.10
2018-10-03T11:03:35.376Z,2.08
2018-10-03T11:04:38.736Z,2.40
2018-10-03T11:05:42.121Z,2.95
2018-10-03T11:06:45.565Z,1.95
2018-10-03T11:07:48.909Z,1.57
2018-10-03T11:08:52.288Z,2.72
2018-10-03T11:09:55.633Z,1.80
2018-10-03T11:10:59.022Z,2.08
2018-10-03T11:12:02.403Z,1.60
2018-10-03T11:13:09.029Z,2.05
2018-10-03T11:14:12.461Z,2.05
2018-10-03T11:15:15.827Z,1.92
2018-10-03T11:16:19.289Z,1.65
2018-10-03T11:17:22.773Z,2.20
2018-10-03T11:18:26.108Z,1.52
2018-10-03T11:19:29.448Z,2.37
2018-10-03T11:20:32.875Z,2.50
2018-10-03T11:21:36.258Z,1.75
2018-10-03T11:22:39.725Z,2.33
2018-10-03T11:23:43.221Z,2.02
2018-10-03T11:24:46.513Z,2.27
2018-10-03T11:25:49.835Z,1.77
2018-10-03T11:26:53.193Z,1.85
2018-10-03T11:27:56.605Z,2.83
2018-10-03T11:28:59.949Z,2.45
2018-10-03T11:30:03.371Z,1.82
2018-10-03T11:31:06.739Z,1.95
2018-10-03T11:32:10.125Z,2.17
2018-10-03T11:33:13.532Z,2.50
2018-10-03T11:34:16.876Z,2.22
2018-10-03T11:35:20.217Z,2.05
2018-10-03T11:36:23.560Z,1.80
2018-10-03T11:37:26.909Z,1.75
2018-10-03T11:38:30.296Z,3.75
2018-10-03T11:39:33.674Z,1.80
2018-10-03T11:40:37.168Z,1.62
2018-10-03T11:41:40.523Z,2.25
2018-10-03T11:42:43.896Z,2.62
2018-10-03T11:43:47.351Z,2.00
2018-10-03T11:44:51.500Z,2.30
2018-10-03T11:45:55.457Z,2.05
2018-10-03T11:46:58.980Z,2.95
2018-10-03T11:48:02.325Z,1.77
2018-10-03T11:49:05.873Z,1.25
2018-10-03T11:50:09.220Z,1.90
2018-10-03T11:51:12.565Z,1.70
2018-10-03T11:52:15.908Z,1.70
2018-10-03T11:53:19.548Z,1.87
2018-10-03T11:54:22.945Z,2.12
2018-10-03T11:55:26.297Z,2.10
2018-10-03T11:56:29.639Z,2.37
2018-10-03T11:57:33.056Z,2.02
2018-10-03T11:58:36.400Z,1.67
2018-10-03T11:59:39.915Z,2.45
2018-10-03T12:00:43.223Z,2.33
2018-10-03T12:01:46.524Z,2.35
2018-10-03T12:02:49.963Z,2.05
2018-10-03T12:03:53.307Z,2.15
2018-10-03T12:04:56.645Z,2.67
2018-10-03T12:06:00.004Z,2.10
2018-10-03T12:07:03.342Z,2.50
2018-10-03T12:08:06.688Z,2.15
2018-10-03T12:09:11.359Z,1.92
2018-10-03T12:10:14.736Z,1.95
2018-10-03T12:11:18.063Z,1.75
2018-10-03T12:12:21.401Z,2.47
2018-10-03T12:13:24.741Z,1.95
2018-10-03T12:14:28.124Z,2.15
2018-10-03T12:15:31.484Z,2.08
2018-10-03T12:16:34.824Z,1.70
2018-10-03T12:17:38.184Z,1.60
2018-10-03T12:18:41.598Z,1.87
2018-10-03T12:19:44.943Z,1.75
2018-10-03T12:20:48.288Z,2.33
2018-10-03T12:21:51.623Z,1.57
2018-10-03T12:22:55.026Z,2.15
2018-10-03T12:23:58.429Z,1.87
2018-10-03T12:25:01.817Z,1.90
2018-10-03T12:26:05.159Z,2.12
2018-10-03T12:27:08.556Z,1.82
2018-10-03T12:28:11.896Z,1.95
2018-10-03T12:29:15.263Z,1.80
2018-10-03T12:30:18.616Z,2.95
2018-10-03T12:31:21.957Z,2.02
2018-10-03T12:32:25.293Z,2.33
2018-10-03T12:33:28.744Z,1.33
2018-10-03T12:34:32.046Z,1.67
2018-10-03T12:35:35.937Z,1.50
2018-10-03T12:36:39.349Z,2.30
2018-10-03T12:37:42.692Z,1.97
2018-10-03T12:38:46.052Z,1.73
2018-10-03T12:39:49.407Z,2.27
2018-10-03T12:40:52.748Z,1.43
2018-10-03T12:41:56.087Z,2.37
2018-10-03T12:42:59.464Z,1.53
2018-10-03T12:44:02.792Z,1.20
2018-10-03T12:45:06.192Z,1.27
2018-10-03T12:46:09.496Z,1.63
2018-10-03T12:47:12.852Z,1.20
2018-10-03T12:48:16.177Z,1.67
2018-10-03T12:49:19.530Z,1.87
2018-10-03T12:50:22.895Z,2.00
2018-10-03T12:51:26.223Z,1.70
2018-10-03T12:52:29.565Z,1.40
2018-10-03T12:53:32.983Z,1.80
2018-10-03T12:54:36.352Z,1.50
2018-10-03T12:55:39.693Z,1.53
2018-10-03T12:56:43.016Z,1.60
2018-10-03T12:57:46.848Z,1.30
2018-10-03T12:58:50.178Z,1.67
2018-10-03T12:59:53.516Z,1.80
2018-10-03T13:00:56.844Z,1.60
2018-10-03T13:02:00.168Z,2.33
2018-10-03T13:03:03.837Z,1.83
2018-10-03T13:04:07.203Z,2.10
2018-10-03T13:05:10.531Z,1.57
2018-10-03T13:06:13.856Z,1.90
2018-10-03T13:07:17.193Z,1.50
2018-10-03T13:08:20.559Z,1.40
2018-10-03T13:09:23.899Z,1.80
2018-10-03T13:10:27.233Z,2.05
2018-10-03T13:11:30.572Z,1.50
2018-10-03T13:12:33.911Z,1.90
2018-10-03T13:13:37.307Z,1.32
2018-10-03T13:14:40.680Z,1.60
2018-10-03T13:15:44.020Z,1.82
2018-10-03T13:16:47.388Z,1.77
2018-10-03T13:17:50.716Z,1.35
2018-10-03T13:18:54.096Z,1.60
2018-10-03T13:19:57.470Z,1.75
2018-10-03T13:21:00.808Z,1.30
2018-10-03T13:22:04.157Z,2.55
2018-10-03T13:23:07.488Z,1.87
2018-10-03T13:24:10.849Z,1.62
2018-10-03T13:25:14.188Z,1.50
2018-10-03T13:26:17.905Z,1.55
2018-10-03T13:27:21.341Z,1.40
2018-10-03T13:28:24.671Z,1.10
2018-10-03T13:29:28.006Z,1.92
2018-10-03T13:30:31.357Z,1.70
2018-10-03T13:31:34.695Z,1.45
2018-10-03T13:32:38.065Z,1.70
2018-10-03T13:33:41.399Z,1.67
2018-10-03T13:34:44.728Z,1.42
2018-10-03T13:35:48.080Z,1.47
2018-10-03T13:36:51.485Z,2.45
2018-10-03T13:37:54.821Z,1.60
2018-10-03T13:38:58.157Z,1.50
2018-10-03T13:40:01.500Z,1.20
2018-10-03T13:41:04.910Z,1.65
2018-10-03T13:42:08.256Z,1.25
2018-10-03T13:43:11.579Z,1.47
2018-10-03T13:44:14.923Z,1.50
2018-10-03T13:45:18.255Z,1.00
2018-10-03T13:46:21.605Z,1.57
2018-10-03T13:47:24.968Z,1.70
2018-10-03T13:48:28.346Z,1.67
2018-10-03T13:49:31.684Z,1.40
2018-10-03T13:50:35.029Z,1.27
2018-10-03T13:51:38.364Z,1.45
2018-10-03T13:52:41.689Z,1.50
2018-10-03T13:53:45.073Z,1.45
2018-10-03T13:54:48.408Z,1.40
2018-10-03T13:55:51.761Z,1.37
2018-10-03T13:56:55.091Z,1.40
2018-10-03T13:57:58.413Z,1.57
2018-10-03T13:59:01.773Z,1.23
2018-10-03T14:00:05.133Z,1.50
2018-10-03T14:01:08.488Z,1.37
2018-10-03T14:02:11.907Z,1.80
2018-10-03T14:03:15.248Z,1.70
2018-10-03T14:04:18.633Z,1.53